D/T METAR WX W/SPE G/SPE TEMP DEWP FEEL
31/01/23 12:50 EGCC 311250Z 28013KT 9999 -SHRA FEW023TCU 07/03 Q1023 TEMPO SHRA -SHRA 15.0mph 7°C 3°C 5.7°C
31/01/23 06:50 EGCC 310650Z 24010KT 4000 -RADZ FEW008 BKN010 08/07 Q1020 TEMPO 5000 -RA BKN009 -RA -DZ 11.5mph 8°C 7°C 8.0°C
30/01/23 12:50 EGCC 301250Z 27013KT 9999 SCT023 08/04 Q1025 15.0mph 8°C 4°C 7.0°C
30/01/23 11:50 EGCC 301150Z AUTO 28013KT 9999 SCT021 SCT027 BKN040 08/04 Q1025 15.0mph 8°C 4°C 7.0°C
30/01/23 10:50 EGCC 301050Z AUTO 30011KT 9999 BKN021 OVC046 08/04 Q1025 NOSIG 12.7mph 8°C 4°C 7.0°C
30/01/23 09:50 EGCC 300950Z AUTO 29007KT 240V310 9999 BKN023 07/03 Q1024 NOSIG 8.1mph 7°C 3°C 5.7°C
30/01/23 07:50 EGCC 300750Z AUTO 30010KT 9999 FEW027 SCT038 06/02 Q1022 NOSIG 11.5mph 6°C 2°C 4.4°C
30/01/23 06:50 EGCC 300650Z AUTO 28012KT 9999 FEW027 BKN032 OVC041 07/02 Q1022 13.8mph 7°C 2°C 5.4°C
09/01/23 06:50 EGCC 090650Z 22007KT 9999 -SHRA BKN012TCU 05/04 Q0992 RESHRA -SHRA 8.1mph 5°C 4°C 4.0°C
09/01/23 06:20 EGCC 090620Z 24007KT 8000 SHRA SCT018TCU BKN024 04/03 Q0991 SHRA 8.1mph 4°C 3°C 2.7°C
09/01/23 05:50 EGCC 090550Z AUTO 20006KT 9999 BKN033/// //////TCU 04/03 Q0991 6.9mph 4°C 3°C 2.7°C
09/01/23 05:20 EGCC 090520Z AUTO 23004KT 9999 //////CB 02/01 Q0990 TEMPO 4500 SHRA BKN009 4.6mph 2°C 1°C 0.1°C
09/01/23 04:50 EGCC 090450Z AUTO 19006KT 150V220 9999 FEW032 04/03 Q0990 6.9mph 4°C 3°C 2.7°C
09/01/23 04:20 EGCC 090420Z AUTO 18006KT 140V220 9999 SCT027 05/03 Q0990 6.9mph 5°C 3°C 3.7°C
09/01/23 03:50 EGCC 090350Z AUTO 19006KT 9999 FEW043/// //////TCU 04/02 Q0989 6.9mph 4°C 2°C 2.4°C
09/01/23 03:20 EGCC 090320Z AUTO 21006KT 9999 SCT033 04/02 Q0989 6.9mph 4°C 2°C 2.4°C
09/01/23 02:50 EGCC 090250Z AUTO 20005KT 140V230 9999 SCT023/// BKN027/// //////TCU 04/02 Q0989 NOSIG 5.8mph 4°C 2°C 2.4°C
09/01/23 01:50 EGCC 090150Z AUTO 19005KT 140V230 9999 FEW023/// SCT028/// BKN046/// //////TCU 04/03 Q0988 NOSIG 5.8mph 4°C 3°C 2.7°C
09/01/23 01:20 EGCC 090120Z AUTO 18006KT 150V220 9999 BKN022 04/03 Q0988 NOSIG 6.9mph 4°C 3°C 2.7°C
09/01/23 00:50 EGCC 090050Z AUTO 17006KT 9999 BKN022 04/03 Q0987 6.9mph 4°C 3°C 2.7°C
09/01/23 00:20 EGCC 090020Z AUTO 19006KT 150V220 9999 SCT022 BKN028 BKN033 04/03 Q0987 6.9mph 4°C 3°C 2.7°C
08/01/23 23:50 EGCC 082350Z AUTO 19006KT 130V210 9999 BKN024/// //////TCU 04/03 Q0987 NOSIG 6.9mph 4°C 3°C 2.7°C
08/01/23 23:20 EGCC 082320Z AUTO 18006KT 140V220 9999 SCT025/// SCT029/// BKN036/// //////TCU 04/03 Q0986 NOSIG 6.9mph 4°C 3°C 2.7°C
08/01/23 22:50 EGCC 082250Z AUTO 19006KT 9999 BKN021 BKN027 BKN049 05/03 Q0986 6.9mph 5°C 3°C 3.7°C
08/01/23 22:20 EGCC 082220Z AUTO 19006KT 9999 BKN021 OVC031 05/03 Q0986 6.9mph 5°C 3°C 3.7°C
08/01/23 20:50 EGCC 082050Z AUTO 19005KT 9999 FEW034 04/02 Q0985 NOSIG 5.8mph 4°C 2°C 2.4°C
08/01/23 19:50 EGCC 081950Z AUTO 18005KT 140V220 9999 NCD 04/02 Q0985 5.8mph 4°C 2°C 2.4°C
08/01/23 19:20 EGCC 081920Z AUTO 18005KT 130V220 9999 NCD 05/02 Q0985 5.8mph 5°C 2°C 3.4°C
08/01/23 18:50 EGCC 081850Z AUTO 19005KT 130V220 9999 FEW048 05/02 Q0985 5.8mph 5°C 2°C 3.4°C
08/01/23 18:20 EGCC 081820Z AUTO 18005KT 150V220 9999 NCD 05/02 Q0984 5.8mph 5°C 2°C 3.4°C
08/01/23 17:50 EGCC 081750Z AUTO 19008KT 9999 NCD 05/02 Q0985 NOSIG 9.2mph 5°C 2°C 3.4°C
08/01/23 17:20 EGCC 081720Z AUTO 19005KT 160V220 9999 NCD 05/02 Q0985 5.8mph 5°C 2°C 3.4°C
08/01/23 16:50 EGCC 081650Z 19005KT 150V220 9999 FEW020 05/03 Q0985 5.8mph 5°C 3°C 3.7°C
08/01/23 16:20 EGCC 081620Z 21007KT 9999 FEW022 06/03 Q0985 8.1mph 6°C 3°C 4.7°C
08/01/23 15:50 EGCC 081550Z 22008KT 9999 FEW023 06/03 Q0985 9.2mph 6°C 3°C 4.7°C
08/01/23 14:50 EGCC 081450Z 21008KT 180V240 9999 FEW009 SCT018 FEW023CB 06/04 Q0984 9.2mph 6°C 4°C 5.0°C
08/01/23 14:20 EGCC 081420Z AUTO 21011KT 9999 NCD 07/04 Q0984 12.7mph 7°C 4°C 6.0°C
08/01/23 13:50 EGCC 081350Z AUTO 21009KT 9999 NCD 07/04 Q0985 10.4mph 7°C 4°C 6.0°C
08/01/23 13:20 EGCC 081320Z AUTO 21007KT 170V240 9999 SCT041 06/04 Q0985 8.1mph 6°C 4°C 5.0°C
08/01/23 12:50 EGCC 081250Z AUTO 21010KT 9999 FEW018/// //////TCU 05/04 Q0985 TEMPO RA 11.5mph 5°C 4°C 4.0°C
08/01/23 12:20 EGCC 081220Z AUTO 19010KT 130V220 5000 -RA BKN014/// BKN021/// OVC028/// //////TCU 07/05 Q0985 TEMPO 4000 RA -RA 11.5mph 7°C 5°C 6.3°C
08/01/23 11:50 EGCC 081150Z AUTO 16007KT 100V220 9999 SCT020/// SCT030/// BKN038/// //////TCU 07/04 Q0985 TEMPO RA 8.1mph 7°C 4°C 6.0°C
08/01/23 11:20 EGCC 081120Z AUTO 16008KT 100V200 9999 -RA SCT018/// SCT031/// BKN038/// //////TCU 06/04 Q0986 TEMPO RA -RA 9.2mph 6°C 4°C 5.0°C
08/01/23 10:50 EGCC 081050Z AUTO 16007KT 120V220 9999 -RA BKN038 BKN049 06/04 Q0987 TEMPO RA -RA 8.1mph 6°C 4°C 5.0°C
08/01/23 10:20 EGCC 081020Z AUTO 17007KT 110V210 9999 BKN043 06/04 Q0987 TEMPO RA 8.1mph 6°C 4°C 5.0°C
08/01/23 09:50 EGCC 080950Z AUTO 15005KT 070V230 9999 NCD 06/04 Q0987 5.8mph 6°C 4°C 5.0°C
08/01/23 09:20 EGCC 080920Z AUTO 17005KT 100V250 9999 NCD 06/04 Q0988 5.8mph 6°C 4°C 5.0°C
08/01/23 08:50 EGCC 080850Z AUTO 16005KT 120V210 9999 NCD 06/03 Q0988 NOSIG 5.8mph 6°C 3°C 4.7°C
08/01/23 08:20 EGCC 080820Z AUTO 15005KT 060V230 9999 NCD 05/03 Q0989 5.8mph 5°C 3°C 3.7°C
08/01/23 07:20 EGCC 080720Z AUTO 14006KT 080V190 9999 -RA FEW013/// BKN027/// BKN043/// //////TCU 05/03 Q0989 RERA TEMPO RA -RA 6.9mph 5°C 3°C 3.7°C
08/01/23 06:50 EGCC 080650Z AUTO 20011KT 150V230 4700 RA SCT024/// BKN032/// BKN042/// //////CB 06/03 Q0990 TEMPO 9999 NSW RA 12.7mph 6°C 3°C 4.7°C
08/01/23 06:50 EGCC 080650Z AUTO 20011KT 150V230 4700 RA SCT024/// BKN032/// BKN042/// //////CB 06/03 Q0990 RA 12.7mph 6°C 3°C 4.7°C
08/01/23 06:20 EGCC 080620Z AUTO 18004KT 120V220 9999 FEW043 06/02 Q0989 TEMPO RA 4.6mph 6°C 2°C 4.4°C
08/01/23 05:50 EGCC 080550Z AUTO 19008KT 9999 -RA FEW030 SCT042 06/03 Q0989 TEMPO SHRA -RA 9.2mph 6°C 3°C 4.7°C
08/01/23 05:20 EGCC 080520Z AUTO 19010KT 9999 NCD 07/04 Q0989 NOSIG 11.5mph 7°C 4°C 6.0°C
08/01/23 04:50 EGCC 080450Z AUTO 19008KT 150V230 9999 NCD 07/04 Q0989 NOSIG 9.2mph 7°C 4°C 6.0°C
08/01/23 04:20 EGCC 080420Z AUTO 18007KT 140V210 9999 SCT032 07/04 Q0989 8.1mph 7°C 4°C 6.0°C
08/01/23 03:50 EGCC 080350Z AUTO 19007KT 150V230 9999 BKN031 BKN039 07/04 Q0990 TEMPO SHRA 8.1mph 7°C 4°C 6.0°C
08/01/23 03:20 EGCC 080320Z AUTO 19007KT 160V230 9999 FEW037 BKN048 07/05 Q0990 NOSIG 8.1mph 7°C 5°C 6.3°C
08/01/23 02:50 EGCC 080250Z AUTO 19008KT 9999 FEW035/// BKN047/// //////TCU 07/05 Q0990 NOSIG 9.2mph 7°C 5°C 6.3°C
08/01/23 02:20 EGCC 080220Z AUTO 20009KT 160V230 9999 FEW031/// BKN038/// //////TCU 08/05 Q0989 NOSIG 10.4mph 8°C 5°C 7.3°C
08/01/23 01:50 EGCC 080150Z AUTO 18007KT 130V210 9999 -RA BKN029/// BKN036/// BKN043/// //////CB 07/05 Q0989 TEMPO SHRA -RA 8.1mph 7°C 5°C 6.3°C
08/01/23 00:50 EGCC 080050Z AUTO 18007KT 110V220 9999 BKN043/// //////CB 07/05 Q0989 TEMPO SHRA 8.1mph 7°C 5°C 6.3°C
08/01/23 00:20 EGCC 080020Z AUTO 18007KT 140V200 9999 BKN025/// BKN041/// //////TCU 07/05 Q0989 RERA TEMPO SHRA 8.1mph 7°C 5°C 6.3°C
07/01/23 23:50 EGCC 072350Z AUTO 18008KT 140V230 9999 -RA SCT029/// BKN039/// //////TCU 07/05 Q0990 TEMPO SHRA -RA 9.2mph 7°C 5°C 6.3°C
07/01/23 23:20 EGCC 072320Z AUTO 18009KT 140V210 9999 -RA FEW033 BKN041 07/05 Q0989 -RA 10.4mph 7°C 5°C 6.3°C
07/01/23 22:50 EGCC 072250Z AUTO 17008KT 110V230 9999 BKN038 07/04 Q0990 TEMPO SHRA 9.2mph 7°C 4°C 6.0°C
07/01/23 22:20 EGCC 072220Z AUTO 17008KT 080V240 9999 BKN043/// //////TCU 07/04 Q0989 9.2mph 7°C 4°C 6.0°C
07/01/23 21:50 EGCC 072150Z AUTO 18009KT 140V210 9999 FEW046 07/04 Q0989 NOSIG 10.4mph 7°C 4°C 6.0°C
07/01/23 21:20 EGCC 072120Z AUTO 19009KT 150V230 9999 SCT026 BKN031 07/04 Q0989 NOSIG 10.4mph 7°C 4°C 6.0°C
07/01/23 20:50 EGCC 072050Z AUTO 19009KT 160V230 9999 BKN031 BKN041 OVC048 07/04 Q0989 NOSIG 10.4mph 7°C 4°C 6.0°C
07/01/23 20:20 EGCC 072020Z AUTO 18010KT 140V220 9999 SCT029 BKN036 07/04 Q0989 11.5mph 7°C 4°C 6.0°C
07/01/23 19:20 EGCC 071920Z AUTO 20009KT 170V230 9999 BKN041 07/04 Q0989 10.4mph 7°C 4°C 6.0°C
07/01/23 18:50 EGCC 071850Z AUTO 20012KT 9999 NCD 07/04 Q0989 NOSIG 13.8mph 7°C 4°C 6.0°C
07/01/23 18:20 EGCC 071820Z AUTO 21010KT 170V230 9999 BKN021 07/05 Q0989 11.5mph 7°C 5°C 6.3°C
07/01/23 17:50 EGCC 071750Z AUTO 20008KT 160V230 9999 SCT028/// BKN039/// //////CB 08/05 Q0989 NOSIG 9.2mph 8°C 5°C 7.3°C
07/01/23 17:20 EGCC 071720Z AUTO 20010KT 9999 -RA FEW028/// BKN043/// BKN049/// //////TCU 08/06 Q0989 RESHGS TEMPO SHRA -RA 11.5mph 8°C 6°C 7.6°C
07/01/23 16:50 EGCC 071650Z AUTO 20009KT 170V230 9999 -RA BKN029 BKN036 09/05 Q0989 -RA 10.4mph 9°C 5°C 8.3°C
07/01/23 16:20 EGCC 071620Z 20007KT 9999 BKN032 10/05 Q0989 8.1mph 10°C 5°C 9.3°C
07/01/23 15:50 EGCC 071550Z 18006KT 140V230 9999 BKN032 10/05 Q0989 TEMPO SHRA 6.9mph 10°C 5°C 9.3°C
07/01/23 15:20 EGCC 071520Z 19008KT 9999 FEW026 SCT034 10/06 Q0989 9.2mph 10°C 6°C 9.6°C
07/01/23 14:50 EGCC 071450Z 19007KT 140V220 9999 VCSH FEW025 SCT038 10/06 Q0990 TEMPO SHRA VCSH 8.1mph 10°C 6°C 9.6°C
07/01/23 14:20 EGCC 071420Z 20008KT 9999 FEW026 SCT038 10/06 Q0990 TEMPO SHRA 9.2mph 10°C 6°C 9.6°C
07/01/23 13:20 EGCC 071320Z 18005KT 110V230 9999 FEW025 11/07 Q0990 TEMPO SHRA 5.8mph 11°C 7°C 11.0°C
07/01/23 12:50 EGCC 071250Z 20007KT 9999 FEW021TCU 11/07 Q0991 TEMPO SHRA 8.1mph 11°C 7°C 11.0°C
07/01/23 12:20 EGCC 071220Z 21009KT 9999 FEW020TCU 11/08 Q0992 10.4mph 11°C 8°C 11.4°C
07/01/23 11:50 EGCC 071150Z AUTO 21008KT 9999 FEW046 11/08 Q0992 9.2mph 11°C 8°C 11.4°C
07/01/23 11:20 EGCC 071120Z AUTO 21010KT 9999 SCT016/// BKN043/// //////TCU 10/08 Q0992 NOSIG 11.5mph 10°C 8°C 10.4°C
07/01/23 10:50 EGCC 071050Z AUTO 20009KT 160V220 9999 SCT020/// SCT029/// BKN041/// //////TCU 11/09 Q0992 NOSIG 10.4mph 11°C 9°C 11.8°C
07/01/23 10:20 EGCC 071020Z AUTO 18006KT 120V220 9999 -RA //////CB 10/09 Q0991 -RA 6.9mph 10°C 9°C 10.8°C
07/01/23 09:50 EGCC 070950Z 19007KT 9999 -SHRA FEW008 BKN045CB 10/09 Q0991 RERA -SHRA 8.1mph 10°C 9°C 10.8°C
07/01/23 09:20 EGCC 070920Z AUTO 19007KT 150V230 3800 RA BKN011/// BKN019/// OVC031/// //////CB 10/09 Q0992 RERA RA 8.1mph 10°C 9°C 10.8°C
07/01/23 08:50 EGCC 070850Z AUTO 17009KT 140V220 9999 -RA SCT040/// //////TCU 11/09 Q0992 -RA 10.4mph 11°C 9°C 11.8°C
07/01/23 07:50 EGCC 070750Z 19008KT 140V220 9999 -SHRA FEW008 FEW015CB BKN042 10/09 Q0993 RESHRA TEMPO RA BKN012 -SHRA 9.2mph 10°C 9°C 10.8°C
07/01/23 07:50 EGCC 070750Z 19008KT 140V220 9999 -SHRA FEW008 FEW015CB BKN042 10/09 Q0993 RESHRA -SHRA 9.2mph 10°C 9°C 10.8°C
07/01/23 07:20 EGCC 070720Z 18011G27KT 150V220 7000 -SHRA FEW012 SCT020CB BKN030 11/09 Q0993 TEMPO RA BKN012 -SHRA 12.7mph 31.1mph 11°C 9°C 11.8°C